Time;durP1;ratioP1;P1;durP2;ratioP2;P2;SDS_P1;SDS_P2;PMS_P1;PMS_P2;Temp;Humidity;BMP_temperature;BMP_pressure;BME280_temperature;BME280_humidity;BME280_pressure;Samples;Min_cycle;Max_cycle;Signal;HPM_P1;HPM_P2
2021/07/20 17:56:28;;;;;;;;;;;25.70;76.10;;;;;;5004999;27;2247531;-95
2021/07/20 17:58:54;;;;;;;;;;;22.60;92.50;;;;;;5048997;28;19917;-96
2021/07/20 18:01:19;;;;;;;;;;;22.10;92.80;;;;;;5060500;28;19971;-94
2021/07/20 18:04:00;;;;;;;;;;;21.80;93.40;;;;;;5062044;28;19916;-95
2021/07/20 18:06:30;;;;;;;;;;;21.50;93.90;;;;;;5065127;28;19912;-96
2021/07/20 18:08:56;;;;;;;;;;;21.30;94.40;;;;;;5066703;28;19909;-95
2021/07/20 18:11:21;;;;;;;;;;;21.10;94.70;;;;;;5063403;28;19909;-95
2021/07/20 18:13:47;;;;;;;;;;;20.90;95.00;;;;;;5060957;28;19919;-94
2021/07/20 18:16:13;;;;;;;;;;;20.80;95.20;;;;;;5059171;28;19913;-95
2021/07/20 18:18:39;;;;;;;;;;;20.60;95.30;;;;;;5056978;28;19912;-96
2021/07/20 18:21:05;;;;;;;;;;;20.50;95.60;;;;;;5060925;28;19912;-95
2021/07/20 18:23:32;;;;;;;;;;;20.40;95.70;;;;;;5043804;28;19963;-93
2021/07/20 18:26:01;;;;;;;;;;;20.40;95.90;;;;;;5041682;28;19913;-94
2021/07/20 18:28:27;;;;;;;;;;;20.30;96.10;;;;;;5051568;28;19913;-93
2021/07/20 18:36:26;;;;;;;;;;;20.20;96.60;;;;;;5909949;23;19929;-96
2021/07/20 19:00:27;;;;;;;;;;;20.40;97.50;;;;;;4990319;23;20001;-94
2021/07/20 19:02:53;;;;;;;;;;;20.50;97.40;;;;;;4983773;28;19918;-95
2021/07/20 19:05:24;;;;;;;;;;;20.50;97.20;;;;;;4982395;28;19942;-95
2021/07/20 19:22:46;;;;;;;;;;;20.40;97.30;;;;;;4944237;28;19918;-94
2021/07/20 19:25:12;;;;;;;;;;;20.40;97.40;;;;;;4949981;29;19930;-94
2021/07/20 19:27:37;;;;;;;;;;;20.40;97.40;;;;;;4949919;29;19915;-92
2021/07/20 19:30:04;;;;;;;;;;;20.40;97.50;;;;;;4950551;29;20265;-93
2021/07/20 19:32:35;;;;;;;;;;;20.40;97.50;;;;;;4945288;29;20283;-94
2021/07/20 19:35:02;;;;;;;;;;;20.30;97.50;;;;;;4949203;29;19921;-96
2021/07/20 19:37:27;;;;;;;;;;;20.30;97.60;;;;;;4956733;29;19921;-93
2021/07/20 19:39:53;;;;;;;;;;;20.20;97.90;;;;;;4953764;29;19950;-92
2021/07/20 19:42:24;;;;;;;;;;;20.20;98.10;;;;;;4958452;29;20375;-95
2021/07/20 19:44:50;;;;;;;;;;;20.20;98.20;;;;;;4958305;28;19919;-92
2021/07/20 19:47:15;;;;;;;;;;;20.20;98.70;;;;;;4955931;28;19978;-93
2021/07/20 19:49:41;;;;;;;;;;;20.20;99.00;;;;;;4978669;28;19903;-92
2021/07/20 19:55:05;;;;;;;;;;;20.10;98.90;;;;;;5383829;23;19932;-95
2021/07/20 19:57:31;;;;;;;;;;;20.10;98.90;;;;;;4982566;28;19949;-94
2021/07/20 19:59:57;;;;;;;;;;;20.10;98.90;;;;;;4978308;28;20364;-95
2021/07/20 20:02:25;;;;;;;;;;;20.20;99.10;;;;;;4973736;28;19922;-93
2021/07/20 20:04:51;;;;;;;;;;;20.20;99.00;;;;;;4967830;28;19992;-93
2021/07/20 20:07:20;;;;;;;;;;;20.20;99.00;;;;;;4975246;28;20359;-94
2021/07/20 20:09:46;;;;;;;;;;;20.20;99.10;;;;;;4976265;28;19910;-91
2021/07/20 20:12:15;;;;;;;;;;;20.20;99.00;;;;;;4974641;28;19949;-93
2021/07/20 20:14:44;;;;;;;;;;;20.20;99.20;;;;;;4974989;28;19914;-91
2021/07/20 20:36:20;;;;;;;;;;;19.60;97.10;;;;;;5067313;28;19925;-94
2021/07/20 20:38:46;;;;;;;;;;;19.50;98.20;;;;;;5035372;28;20434;-93
2021/07/20 20:41:12;;;;;;;;;;;19.50;99.00;;;;;;5051131;28;19955;-93
2021/07/20 20:43:39;;;;;;;;;;;19.50;99.40;;;;;;5033045;28;19921;-92
2021/07/20 20:46:04;;;;;;;;;;;19.50;99.80;;;;;;5031074;28;20366;-93
2021/07/20 20:48:30;;;;;;;;;;;19.60;99.90;;;;;;5033757;28;19920;-93
2021/07/20 20:50:56;;;;;;;;;;;19.70;99.90;;;;;;5033013;28;20381;-92
2021/07/20 20:53:21;;;;;;;;;;;19.80;99.90;;;;;;5032541;28;19914;-93
2021/07/20 20:55:47;;;;;;;;;;;19.90;99.90;;;;;;5032937;28;20353;-95
